Time;durP1;ratioP1;P1;durP2;ratioP2;P2;SDS_P1;SDS_P2;PMS_P1;PMS_P2;Temp;Humidity;BMP_temperature;BMP_pressure;BME280_temperature;BME280_humidity;BME280_pressure;Samples;Min_cycle;Max_cycle;Signal;HPM_P1;HPM_P2
2022/07/22 00:01:30;;;;;;;6.63;4.30;;;18.70;99.90;;;;;;5054303;28;20028;-57
2022/07/22 00:03:56;;;;;;;9.48;5.18;;;18.70;99.90;;;;;;5054318;28;20126;-57
2022/07/22 00:06:22;;;;;;;7.97;3.83;;;18.60;99.90;;;;;;5054424;28;20053;-57
2022/07/22 00:08:48;;;;;;;10.20;4.53;;;18.60;99.90;;;;;;5053776;28;20056;-57
2022/07/22 00:11:14;;;;;;;10.30;5.13;;;18.60;99.90;;;;;;5054615;28;20032;-57
2022/07/22 00:13:40;;;;;;;7.00;4.70;;;18.70;99.90;;;;;;5054504;28;20029;-57
2022/07/22 00:16:06;;;;;;;11.45;4.95;;;18.70;99.90;;;;;;5054360;28;20075;-57
2022/07/22 00:18:32;;;;;;;10.57;4.38;;;18.60;99.90;;;;;;5054320;28;20106;-57
2022/07/22 00:20:58;;;;;;;8.82;3.95;;;18.50;99.90;;;;;;5054332;28;20024;-57
2022/07/22 00:23:24;;;;;;;8.68;3.97;;;18.50;99.90;;;;;;5054267;28;20078;-57
2022/07/22 00:25:50;;;;;;;15.15;4.63;;;18.40;99.90;;;;;;5054339;28;20044;-57
2022/07/22 00:28:16;;;;;;;6.35;4.00;;;18.40;99.90;;;;;;5054600;28;20466;-57
2022/07/22 00:30:41;;;;;;;6.43;3.88;;;18.50;99.90;;;;;;5054241;28;20100;-57
2022/07/22 00:33:07;;;;;;;9.35;4.43;;;18.50;99.90;;;;;;5054317;28;20025;-57
2022/07/22 00:35:33;;;;;;;5.97;4.20;;;18.50;99.90;;;;;;5054193;28;20056;-57
2022/07/22 00:37:59;;;;;;;10.10;4.22;;;18.50;99.90;;;;;;5054171;28;20040;-57
2022/07/22 00:40:25;;;;;;;6.97;4.10;;;18.50;99.90;;;;;;5054194;28;20474;-57
2022/07/22 00:42:53;;;;;;;6.00;4.43;;;18.40;99.90;;;;;;5054107;28;20107;-57
2022/07/22 00:45:19;;;;;;;9.05;4.28;;;18.40;99.90;;;;;;5054176;28;20043;-57
2022/07/22 00:47:45;;;;;;;6.63;4.22;;;18.40;99.90;;;;;;5052918;28;20125;-57
2022/07/22 00:50:14;;;;;;;6.32;3.88;;;18.40;99.90;;;;;;5054163;28;20455;-57
2022/07/22 00:52:43;;;;;;;7.13;4.47;;;18.40;99.90;;;;;;5054097;28;20032;-57
2022/07/22 00:55:10;;;;;;;7.35;4.28;;;18.30;99.90;;;;;;5053971;28;20112;-57
2022/07/22 00:57:35;;;;;;;8.52;4.20;;;18.30;99.90;;;;;;5053923;28;20458;-57
2022/07/22 01:00:02;;;;;;;5.80;4.28;;;18.30;99.90;;;;;;5036177;28;20056;-57
2022/07/22 01:02:28;;;;;;;11.25;5.05;;;18.30;99.90;;;;;;5037082;28;20052;-57
2022/07/22 01:04:54;;;;;;;10.45;5.18;;;18.30;99.90;;;;;;5053910;28;20029;-57
2022/07/22 01:07:20;;;;;;;10.35;4.57;;;18.30;99.90;;;;;;5054056;28;20052;-57
2022/07/22 01:09:46;;;;;;;6.35;4.40;;;18.30;99.90;;;;;;5053862;28;20051;-57
2022/07/22 01:12:13;;;;;;;10.15;4.80;;;18.30;99.90;;;;;;5053934;28;20027;-57
2022/07/22 01:14:39;;;;;;;8.75;4.38;;;18.30;99.90;;;;;;5052779;28;20073;-57
2022/07/22 01:17:05;;;;;;;8.70;4.55;;;18.20;99.90;;;;;;5053780;28;20124;-57
2022/07/22 01:19:31;;;;;;;6.75;3.75;;;18.30;99.90;;;;;;5052855;28;20095;-57
2022/07/22 01:21:57;;;;;;;5.20;4.10;;;18.20;99.90;;;;;;5057627;28;20040;-57
2022/07/22 01:24:23;;;;;;;7.07;4.15;;;18.20;99.90;;;;;;5056105;28;20059;-57
2022/07/22 01:26:49;;;;;;;10.68;5.35;;;18.20;99.90;;;;;;5057617;28;20029;-57
2022/07/22 01:29:15;;;;;;;9.38;4.93;;;18.10;99.90;;;;;;5056197;28;20037;-57
2022/07/22 01:31:41;;;;;;;7.22;4.85;;;18.00;99.90;;;;;;5057387;28;20029;-57
2022/07/22 01:34:07;;;;;;;8.00;4.68;;;18.00;99.90;;;;;;5057469;28;20036;-57
2022/07/22 01:36:35;;;;;;;8.68;4.90;;;17.90;99.90;;;;;;5056126;28;20033;-57
2022/07/22 01:39:03;;;;;;;7.88;4.95;;;17.80;99.90;;;;;;5055731;28;20035;-57
2022/07/22 01:41:29;;;;;;;13.38;5.85;;;17.80;99.90;;;;;;5072580;28;20029;-57
2022/07/22 01:43:55;;;;;;;11.88;5.50;;;17.80;99.90;;;;;;5057118;28;20441;-57
2022/07/22 01:46:22;;;;;;;8.38;4.97;;;17.80;99.90;;;;;;5055799;28;20082;-57
2022/07/22 01:48:51;;;;;;;17.95;5.38;;;17.80;99.90;;;;;;5055788;28;20025;-57
2022/07/22 01:51:17;;;;;;;7.82;4.32;;;17.70;99.90;;;;;;5055849;28;20033;-57
2022/07/22 01:53:43;;;;;;;17.45;5.00;;;17.60;99.90;;;;;;5055467;28;20029;-57
2022/07/22 01:56:09;;;;;;;6.40;4.43;;;17.60;99.90;;;;;;5055759;28;20021;-57
2022/07/22 01:58:43;;;;;;;9.25;4.25;;;17.60;99.90;;;;;;5055622;28;20032;-57
2022/07/22 02:01:10;;;;;;;7.25;3.85;;;17.50;99.90;;;;;;5072349;28;20029;-57
2022/07/22 02:03:36;;;;;;;9.57;4.38;;;17.50;99.90;;;;;;5055403;28;20494;-57
2022/07/22 02:06:03;;;;;;;8.00;4.75;;;17.60;99.90;;;;;;5055315;28;20033;-57
2022/07/22 02:08:29;;;;;;;8.55;3.97;;;17.40;99.90;;;;;;5055491;28;20045;-57
2022/07/22 02:11:07;;;;;;;9.57;4.50;;;17.40;99.90;;;;;;5056910;28;20056;-57
2022/07/22 02:13:36;;;;;;;9.77;4.75;;;17.30;99.90;;;;;;5055469;28;20029;-57
2022/07/22 02:16:02;;;;;;;6.18;4.78;;;17.30;99.90;;;;;;5055353;28;20498;-57
2022/07/22 02:18:28;;;;;;;6.65;3.80;;;17.30;99.90;;;;;;5055086;28;20024;-57
2022/07/22 02:20:54;;;;;;;7.65;4.07;;;17.30;99.90;;;;;;5055265;28;20029;-57
2022/07/22 02:23:20;;;;;;;7.30;4.00;;;17.20;99.90;;;;;;5055105;28;20029;-57
2022/07/22 02:25:46;;;;;;;7.63;4.35;;;17.20;99.90;;;;;;5055098;28;20025;-57
2022/07/22 02:28:12;;;;;;;7.35;4.45;;;17.10;99.90;;;;;;5055131;28;20052;-57
2022/07/22 02:30:39;;;;;;;8.57;4.45;;;17.10;99.90;;;;;;5056278;28;20029;-57
2022/07/22 02:33:05;;;;;;;12.90;5.47;;;17.10;99.90;;;;;;5054338;28;20557;-57
2022/07/22 02:35:31;;;;;;;9.80;5.18;;;17.20;99.90;;;;;;5054999;28;20512;-57
2022/07/22 02:37:58;;;;;;;10.13;5.45;;;17.20;99.90;;;;;;5056150;28;20052;-57
2022/07/22 02:40:24;;;;;;;6.85;4.75;;;17.20;99.90;;;;;;5055018;28;20417;-57
2022/07/22 02:42:50;;;;;;;7.65;4.90;;;17.20;99.90;;;;;;5054628;28;20040;-57
2022/07/22 02:45:16;;;;;;;26.63;5.50;;;17.20;99.90;;;;;;5054810;28;20114;-57
2022/07/22 02:47:51;;;;;;;9.15;4.95;;;17.20;99.90;;;;;;5056027;28;20435;-57
2022/07/22 02:50:17;;;;;;;9.98;4.38;;;17.20;99.90;;;;;;5054629;28;20479;-57
2022/07/22 02:52:43;;;;;;;10.20;5.93;;;17.20;99.90;;;;;;5054697;28;20029;-57
2022/07/22 02:55:11;;;;;;;6.10;4.63;;;17.10;99.90;;;;;;5071192;28;20418;-57
2022/07/22 02:57:38;;;;;;;8.20;4.70;;;17.00;99.90;;;;;;5055777;28;20037;-57
2022/07/22 03:00:08;;;;;;;8.43;4.82;;;16.90;99.90;;;;;;5054333;28;20037;-57
2022/07/22 03:02:36;;;;;;;11.95;5.55;;;16.90;99.90;;;;;;5051921;28;20132;-57
2022/07/22 03:05:04;;;;;;;8.85;4.78;;;16.80;99.90;;;;;;5047283;28;20139;-57
2022/07/22 03:07:30;;;;;;;10.55;5.28;;;16.80;99.90;;;;;;5059642;28;20497;-57
2022/07/22 03:09:57;;;;;;;8.80;4.63;;;16.80;99.90;;;;;;5073413;28;20505;-57
2022/07/22 03:12:23;;;;;;;11.30;5.22;;;16.80;99.90;;;;;;5067528;28;20509;-57
2022/07/22 03:14:50;;;;;;;8.82;5.03;;;16.80;99.90;;;;;;5085084;28;20048;-57
2022/07/22 03:17:16;;;;;;;11.25;5.05;;;16.80;99.90;;;;;;5062540;28;20077;-58
2022/07/22 03:19:42;;;;;;;8.65;4.55;;;16.70;99.90;;;;;;5059030;28;20159;-57
2022/07/22 03:22:08;;;;;;;9.20;5.05;;;16.70;99.90;;;;;;5063558;28;20617;-57
2022/07/22 03:24:34;;;;;;;8.18;4.43;;;16.70;99.90;;;;;;5086590;28;21064;-57
2022/07/22 03:27:00;;;;;;;9.02;4.82;;;16.70;99.90;;;;;;5068337;28;20053;-58
2022/07/22 03:29:29;;;;;;;6.20;4.65;;;16.70;99.90;;;;;;4904268;28;1235387;-57
2022/07/22 03:31:55;;;;;;;11.68;5.10;;;16.70;99.90;;;;;;5003396;28;20044;-57
2022/07/22 03:34:36;;;;;;;8.68;4.85;;;16.70;99.90;;;;;;5048989;28;20135;-57
2022/07/22 03:37:06;;;;;;;5.78;4.82;;;16.60;99.90;;;;;;5050842;28;20072;-57
2022/07/22 03:39:32;;;;;;;6.95;5.18;;;16.60;99.90;;;;;;5057825;28;20532;-57
2022/07/22 03:41:58;;;;;;;8.63;5.22;;;16.60;99.90;;;;;;5061500;28;20051;-57
2022/07/22 03:44:24;;;;;;;8.13;5.18;;;16.50;99.90;;;;;;5059379;28;20048;-57
2022/07/22 03:46:50;;;;;;;11.02;5.03;;;16.60;99.90;;;;;;5071618;28;20497;-57
2022/07/22 03:49:16;;;;;;;9.48;5.70;;;16.60;99.90;;;;;;5066812;28;20043;-57
2022/07/22 03:51:42;;;;;;;8.40;6.05;;;16.70;99.90;;;;;;5038349;28;20056;-57
2022/07/22 03:54:09;;;;;;;12.60;6.70;;;16.70;99.90;;;;;;5024578;28;20205;-57
2022/07/22 03:56:39;;;;;;;9.90;6.60;;;16.80;99.90;;;;;;4899548;28;20047;-57
2022/07/22 03:59:05;;;;;;;12.55;6.38;;;16.80;99.90;;;;;;5028396;28;20045;-57
2022/07/22 04:01:31;;;;;;;11.65;6.20;;;16.80;99.90;;;;;;5026744;28;20057;-57
2022/07/22 04:03:58;;;;;;;8.50;5.75;;;16.90;99.90;;;;;;4989821;28;20041;-57
2022/07/22 04:06:28;;;;;;;11.85;5.95;;;16.90;99.90;;;;;;5021543;28;20164;-57
2022/07/22 04:09:09;;;;;;;10.57;6.35;;;17.00;99.90;;;;;;5051841;28;20407;-58
2022/07/22 04:11:34;;;;;;;9.27;5.00;;;17.00;99.90;;;;;;5053571;28;20503;-57
2022/07/22 04:14:00;;;;;;;7.10;4.95;;;17.00;99.90;;;;;;5069692;28;20036;-57
2022/07/22 04:16:26;;;;;;;15.93;5.45;;;17.10;99.90;;;;;;5025987;28;20038;-57
2022/07/22 04:19:04;;;;;;;14.10;5.32;;;17.10;99.90;;;;;;5005199;28;20075;-57
2022/07/22 04:21:50;;;;;;;20.95;6.10;;;17.20;99.90;;;;;;5073609;28;20044;-57
2022/07/22 04:24:20;;;;;;;17.38;6.05;;;17.30;99.90;;;;;;5042573;28;20068;-57
2022/07/22 04:26:47;;;;;;;18.38;6.68;;;17.30;99.90;;;;;;4995295;28;1216643;-57
2022/07/22 04:29:13;;;;;;;18.15;6.22;;;17.40;99.90;;;;;;5020060;28;20484;-57
2022/07/22 04:31:40;;;;;;;19.98;6.90;;;17.50;99.90;;;;;;5083426;28;20043;-57
2022/07/22 04:34:12;;;;;;;12.13;6.05;;;17.60;99.90;;;;;;5060751;28;20052;-57
2022/07/22 04:36:38;;;;;;;13.73;6.20;;;17.70;99.90;;;;;;5075804;28;20136;-57
2022/07/22 04:39:05;;;;;;;20.42;6.68;;;17.70;99.90;;;;;;5006254;28;20094;-57
2022/07/22 04:41:31;;;;;;;15.50;7.05;;;17.80;99.90;;;;;;5063103;28;20106;-58
2022/07/22 04:43:58;;;;;;;16.15;6.38;;;17.90;99.90;;;;;;5069511;28;20040;-57
2022/07/22 04:46:26;;;;;;;17.10;6.55;;;18.00;99.90;;;;;;5066358;28;20041;-57
2022/07/22 04:48:54;;;;;;;16.67;6.55;;;18.10;99.90;;;;;;5015402;28;20046;-58
2022/07/22 04:51:20;;;;;;;12.00;5.50;;;18.30;99.90;;;;;;5021103;28;20108;-57
2022/07/22 04:53:48;;;;;;;9.15;6.18;;;18.40;99.90;;;;;;5031039;28;20044;-57
2022/07/22 04:56:20;;;;;;;11.93;6.10;;;18.50;99.90;;;;;;5030319;28;20128;-57
2022/07/22 04:58:46;;;;;;;12.55;5.68;;;18.60;99.90;;;;;;5038610;28;20049;-57
2022/07/22 05:01:12;;;;;;;14.77;6.68;;;18.80;99.90;;;;;;5036564;28;20040;-57
2022/07/22 05:03:40;;;;;;;14.15;6.13;;;18.80;99.90;;;;;;5036773;28;20053;-57
2022/07/22 05:06:06;;;;;;;15.55;6.20;;;19.00;99.90;;;;;;5036950;28;20052;-57
2022/07/22 05:08:36;;;;;;;16.05;6.03;;;19.10;99.90;;;;;;5020079;28;20025;-57
2022/07/22 05:11:02;;;;;;;17.60;6.88;;;19.30;99.90;;;;;;5016749;28;20041;-57
2022/07/22 05:13:28;;;;;;;26.02;7.55;;;19.40;99.90;;;;;;5020427;28;20234;-57
2022/07/22 05:15:54;;;;;;;17.10;7.85;;;19.40;99.90;;;;;;5024432;28;20108;-57
2022/07/22 05:18:20;;;;;;;17.27;7.57;;;19.60;99.90;;;;;;5022719;28;20037;-57
2022/07/22 05:20:46;;;;;;;17.75;7.07;;;19.70;99.90;;;;;;5029888;28;20032;-57
2022/07/22 05:23:12;;;;;;;15.30;7.00;;;19.90;99.90;;;;;;5019141;28;20053;-57
2022/07/22 05:25:39;;;;;;;18.10;7.93;;;20.00;99.90;;;;;;5016778;28;20029;-57
2022/07/22 05:28:06;;;;;;;57.42;12.63;;;20.10;99.90;;;;;;5018514;28;20040;-57
2022/07/22 05:30:41;;;;;;;20.35;7.53;;;20.30;99.90;;;;;;5016230;28;20026;-57
2022/07/22 05:33:07;;;;;;;21.08;7.60;;;20.30;99.10;;;;;;5018549;28;20033;-57
2022/07/22 05:35:56;;;;;;;21.67;7.80;;;20.50;99.20;;;;;;5034426;28;20434;-57
2022/07/22 05:38:25;;;;;;;23.50;8.63;;;20.60;98.50;;;;;;5025771;28;20033;-57
2022/07/22 05:40:51;;;;;;;25.17;8.82;;;20.80;98.40;;;;;;5025502;28;20474;-57
2022/07/22 05:43:17;;;;;;;27.33;7.90;;;20.80;97.60;;;;;;5018294;28;20061;-57
2022/07/22 05:45:43;;;;;;;30.25;8.90;;;20.90;96.60;;;;;;5019250;28;20063;-57
2022/07/22 05:48:10;;;;;;;26.17;8.40;;;21.00;95.40;;;;;;5035835;28;20120;-57
2022/07/22 05:50:36;;;;;;;22.35;6.97;;;21.20;94.80;;;;;;5035765;28;20049;-57
2022/07/22 05:53:02;;;;;;;37.55;9.65;;;21.30;94.70;;;;;;5034604;28;20083;-57
2022/07/22 05:55:28;;;;;;;39.75;8.18;;;21.50;93.70;;;;;;5020238;28;20116;-57
2022/07/22 05:57:54;;;;;;;16.40;6.82;;;21.70;93.30;;;;;;5035988;28;20141;-58
2022/07/22 06:00:20;;;;;;;22.23;8.30;;;21.80;90.90;;;;;;5045384;28;20033;-57
2022/07/22 06:02:46;;;;;;;42.40;18.35;;;21.80;90.60;;;;;;5037626;28;20426;-57
2022/07/22 06:05:18;;;;;;;37.10;14.50;;;21.90;89.70;;;;;;5055043;28;20089;-57
2022/07/22 06:07:44;;;;;;;24.98;7.43;;;22.10;90.50;;;;;;5054003;28;20060;-57
2022/07/22 06:10:13;;;;;;;30.02;12.27;;;22.20;88.30;;;;;;5055293;28;20386;-57
2022/07/22 06:12:40;;;;;;;34.90;12.80;;;22.40;88.00;;;;;;5055415;28;20036;-57
2022/07/22 06:15:09;;;;;;;30.48;14.02;;;22.60;86.10;;;;;;5055109;28;20033;-57
2022/07/22 06:17:36;;;;;;;37.25;13.05;;;22.70;85.00;;;;;;5051820;28;20029;-58
2022/07/22 06:20:03;;;;;;;23.35;10.40;;;22.80;83.10;;;;;;5064962;28;20048;-57
2022/07/22 06:22:31;;;;;;;21.80;11.95;;;23.00;80.20;;;;;;5052409;28;20494;-58
2022/07/22 06:24:57;;;;;;;24.08;10.60;;;23.20;80.10;;;;;;5035030;28;20424;-58
2022/07/22 06:27:23;;;;;;;31.27;10.32;;;23.30;80.00;;;;;;5052690;28;20075;-58
2022/07/22 06:29:50;;;;;;;19.85;9.68;;;23.50;77.00;;;;;;5054599;28;20108;-58
2022/07/22 06:32:16;;;;;;;22.35;8.75;;;23.60;76.50;;;;;;5055067;28;20044;-58
2022/07/22 06:34:42;;;;;;;58.05;12.80;;;23.80;74.70;;;;;;5047351;28;20029;-58
2022/07/22 06:37:08;;;;;;;47.80;12.68;;;23.90;74.50;;;;;;5058440;28;20498;-58
2022/07/22 06:39:34;;;;;;;20.90;8.52;;;24.10;73.60;;;;;;5049574;28;20476;-58
2022/07/22 06:42:29;;;;;;;29.20;8.95;;;24.20;73.50;;;;;;5039943;28;20086;-58
2022/07/22 06:45:16;;;;;;;22.48;8.25;;;24.50;72.20;;;;;;5040685;28;20040;-58
2022/07/22 06:48:24;;;;;;;37.00;9.82;;;24.70;71.80;;;;;;5033084;28;20025;-58
2022/07/22 06:51:00;;;;;;;43.35;10.02;;;25.00;72.00;;;;;;5051540;28;20064;-58
2022/07/22 06:53:29;;;;;;;33.90;9.05;;;25.30;71.50;;;;;;5070176;28;20033;-58
2022/07/22 06:55:55;;;;;;;21.27;7.10;;;25.50;68.80;;;;;;5053763;28;20078;-58
2022/07/22 06:58:21;;;;;;;30.40;7.72;;;25.70;66.70;;;;;;5053721;28;20102;-58
2022/07/22 07:00:48;;;;;;;22.13;7.47;;;25.90;66.40;;;;;;5052976;28;20037;-58
2022/07/22 07:03:29;;;;;;;37.83;8.68;;;26.10;64.30;;;;;;5054269;28;20441;-58
2022/07/22 07:05:58;;;;;;;25.77;7.70;;;26.40;64.50;;;;;;5053225;28;20040;-58
2022/07/22 07:08:27;;;;;;;33.90;7.93;;;26.60;63.70;;;;;;5051750;28;20109;-58
2022/07/22 07:10:53;;;;;;;27.08;8.57;;;26.90;62.10;;;;;;5054114;28;20112;-58
2022/07/22 07:13:19;;;;;;;20.38;5.97;;;27.20;61.40;;;;;;5053098;28;20060;-58
2022/07/22 07:15:47;;;;;;;29.55;7.70;;;27.50;60.50;;;;;;5053359;28;20035;-58
2022/07/22 07:18:14;;;;;;;23.95;6.03;;;27.90;59.60;;;;;;5053095;28;20029;-58
2022/07/22 07:20:40;;;;;;;19.50;6.78;;;28.20;58.40;;;;;;5049502;28;20025;-58
2022/07/22 07:23:08;;;;;;;17.90;6.30;;;28.50;58.80;;;;;;5053339;28;20040;-58
2022/07/22 07:25:40;;;;;;;26.45;6.40;;;28.70;56.70;;;;;;5053183;28;20394;-58
2022/07/22 07:28:06;;;;;;;39.85;8.15;;;28.80;55.10;;;;;;5055835;28;20110;-58
2022/07/22 07:30:58;;;;;;;19.13;5.68;;;28.80;54.20;;;;;;5028831;28;20056;-58
2022/07/22 07:33:25;;;;;;;15.27;5.53;;;29.00;53.30;;;;;;5033963;28;20026;-58
2022/07/22 07:35:52;;;;;;;22.95;6.13;;;29.50;54.00;;;;;;5050391;28;20061;-58
2022/07/22 07:38:27;;;;;;;38.28;8.65;;;29.90;52.30;;;;;;5059679;28;20505;-58
2022/07/22 07:40:53;;;;;;;29.40;6.38;;;30.30;51.70;;;;;;5052343;28;20497;-58
2022/07/22 07:43:20;;;;;;;20.73;5.70;;;30.50;49.80;;;;;;5049467;28;20021;-58
2022/07/22 07:45:46;;;;;;;14.80;5.50;;;30.60;49.40;;;;;;5046537;28;20037;-58
2022/07/22 07:48:12;;;;;;;18.92;5.35;;;31.00;49.40;;;;;;5051768;28;20569;-58
2022/07/22 07:50:38;;;;;;;20.92;6.75;;;31.40;47.90;;;;;;5048513;28;20178;-58
2022/07/22 07:53:05;;;;;;;15.32;4.97;;;31.60;46.40;;;;;;5050003;28;20021;-58
2022/07/22 07:55:36;;;;;;;16.73;5.07;;;31.90;46.50;;;;;;5053305;28;20501;-58
2022/07/22 07:58:03;;;;;;;18.73;6.13;;;32.10;45.00;;;;;;5036341;28;20091;-58
2022/07/22 08:00:32;;;;;;;10.90;4.22;;;32.20;44.30;;;;;;5060870;28;20033;-58
2022/07/22 08:02:58;;;;;;;27.05;12.70;;;32.50;43.40;;;;;;5050011;28;20028;-58
2022/07/22 08:05:26;;;;;;;14.63;4.72;;;32.80;42.60;;;;;;5052826;28;20037;-58
2022/07/22 08:07:52;;;;;;;22.08;5.57;;;32.80;42.00;;;;;;5069370;28;20398;-58
2022/07/22 08:10:20;;;;;;;17.98;5.13;;;33.10;42.10;;;;;;5068762;28;20072;-58
2022/07/22 08:13:15;;;;;;;12.77;4.78;;;33.30;42.80;;;;;;5048430;28;20074;-58
2022/07/22 08:16:01;;;;;;;12.73;5.45;;;33.60;42.70;;;;;;5022586;28;20037;-58
2022/07/22 08:18:28;;;;;;;11.32;4.95;;;33.80;40.60;;;;;;5054231;28;20060;-58
2022/07/22 08:20:54;;;;;;;16.77;5.90;;;34.10;40.60;;;;;;5043122;28;20026;-59
2022/07/22 08:23:29;;;;;;;17.67;6.05;;;34.20;39.60;;;;;;5049214;28;20070;-58
2022/07/22 08:25:55;;;;;;;17.65;5.35;;;34.40;38.90;;;;;;5043707;28;20025;-58
2022/07/22 08:28:21;;;;;;;15.63;5.05;;;34.20;39.90;;;;;;5052181;28;20112;-58
2022/07/22 08:30:47;;;;;;;14.30;6.38;;;34.50;38.90;;;;;;5051198;28;20033;-59
2022/07/22 08:33:14;;;;;;;10.85;5.57;;;34.90;38.20;;;;;;5052713;28;20025;-58
2022/07/22 08:35:40;;;;;;;13.55;6.13;;;35.00;37.30;;;;;;5052548;28;20033;-58
2022/07/22 08:38:07;;;;;;;19.13;7.60;;;35.00;37.40;;;;;;5052693;28;20494;-58
2022/07/22 08:40:34;;;;;;;17.35;6.68;;;35.40;38.00;;;;;;5052654;28;20082;-59
2022/07/22 08:43:03;;;;;;;19.08;7.18;;;35.70;36.30;;;;;;5047428;28;20033;-59
2022/07/22 08:45:31;;;;;;;14.98;5.95;;;35.50;36.30;;;;;;5038821;28;20033;-59
2022/07/22 08:48:02;;;;;;;19.33;7.10;;;35.90;36.20;;;;;;5033009;28;20029;-59
2022/07/22 08:50:51;;;;;;;10.70;5.90;;;36.00;36.10;;;;;;5050319;28;20042;-59
2022/07/22 08:53:43;;;;;;;15.25;6.57;;;36.50;34.70;;;;;;5026859;28;20048;-59
2022/07/22 08:56:13;;;;;;;18.25;6.70;;;36.80;32.70;;;;;;5032766;28;20030;-59
2022/07/22 08:58:40;;;;;;;17.70;7.22;;;36.70;32.80;;;;;;5047378;28;20140;-59
2022/07/22 09:01:15;;;;;;;16.73;7.53;;;37.00;34.30;;;;;;5051637;28;20058;-59
2022/07/22 09:03:56;;;;;;;19.02;6.63;;;37.20;31.70;;;;;;5052823;28;20033;-59
2022/07/22 09:06:33;;;;;;;20.77;6.13;;;37.20;33.30;;;;;;5045181;28;20364;-59
2022/07/22 09:09:05;;;;;;;23.50;6.55;;;37.20;31.50;;;;;;5052907;28;20029;-59
2022/07/22 09:12:02;;;;;;;11.82;5.78;;;37.30;32.10;;;;;;5053538;28;20048;-59
2022/07/22 09:14:49;;;;;;;9.95;5.60;;;37.70;31.10;;;;;;5053572;28;20044;-59
2022/07/22 09:17:41;;;;;;;12.02;4.95;;;37.80;29.20;;;;;;5051689;28;20033;-59
2022/07/22 09:20:47;;;;;;;11.05;5.95;;;37.50;29.30;;;;;;5033724;28;20119;-59
2022/07/22 09:23:43;;;;;;;15.45;5.43;;;37.70;29.60;;;;;;5040175;28;20051;-59
2022/07/22 09:26:38;;;;;;;20.30;5.95;;;38.00;28.30;;;;;;5052489;28;20025;-59
2022/07/22 09:29:24;;;;;;;24.45;6.85;;;38.10;28.50;;;;;;5051604;28;20356;-58
2022/07/22 09:32:09;;;;;;;14.40;5.78;;;38.20;28.80;;;;;;5053353;28;20391;-59
2022/07/22 09:34:48;;;;;;;27.80;8.45;;;38.40;29.20;;;;;;5050993;28;20286;-59
2022/07/22 09:37:24;;;;;;;20.45;7.70;;;38.70;29.20;;;;;;5067958;28;20029;-58
2022/07/22 09:39:50;;;;;;;26.00;8.10;;;38.60;29.20;;;;;;5053348;28;20032;-59
2022/07/22 09:42:17;;;;;;;17.95;6.57;;;38.90;28.90;;;;;;5054854;28;20039;-59
2022/07/22 09:44:45;;;;;;;46.50;11.32;;;39.10;28.40;;;;;;5055295;28;20036;-59
2022/07/22 09:47:29;;;;;;;15.90;6.95;;;38.90;28.70;;;;;;5056612;28;20558;-59
2022/07/22 09:50:33;;;;;;;14.38;5.95;;;39.30;28.50;;;;;;5031972;28;20497;-59
2022/07/22 09:53:22;;;;;;;15.48;5.50;;;39.20;27.70;;;;;;5037730;28;20119;-59
2022/07/22 09:56:04;;;;;;;17.38;5.80;;;39.20;27.90;;;;;;5054939;28;20033;-59
2022/07/22 09:58:30;;;;;;;10.40;4.55;;;39.30;27.00;;;;;;5052501;28;20128;-59
2022/07/22 10:01:02;;;;;;;12.45;4.65;;;39.30;27.50;;;;;;5047075;28;20079;-59
2022/07/22 10:03:31;;;;;;;21.67;7.97;;;39.30;28.00;;;;;;5045739;28;20044;-59
2022/07/22 10:06:01;;;;;;;15.18;6.05;;;39.50;27.80;;;;;;5050451;28;20043;-59
2022/07/22 10:08:30;;;;;;;19.70;5.22;;;39.30;28.30;;;;;;5046935;28;20059;-59
2022/07/22 10:11:00;;;;;;;9.88;3.92;;;39.20;27.00;;;;;;5046440;28;20032;-59
2022/07/22 10:13:27;;;;;;;;;;;39.50;26.60;;;;;;5046680;28;20057;-59
2022/07/22 10:15:55;;;;;;;7.88;3.80;;;39.80;27.20;;;;;;5050395;28;20037;-59
2022/07/22 10:18:21;;;;;;;19.50;5.05;;;39.50;25.50;;;;;;5061657;28;20030;-59
2022/07/22 10:20:51;;;;;;;17.30;3.88;;;39.80;25.20;;;;;;5059307;28;20087;-58
2022/07/22 10:23:21;;;;;;;31.95;7.43;;;39.80;25.90;;;;;;5053267;28;20029;-58
2022/07/22 10:25:56;;;;;;;6.72;3.15;;;39.90;24.80;;;;;;5050562;28;20037;-59
2022/07/22 10:28:27;;;;;;;11.57;4.00;;;39.90;25.20;;;;;;5039207;28;20065;-59
2022/07/22 10:31:07;;;;;;;11.35;3.90;;;40.20;26.20;;;;;;5041094;28;20033;-59
2022/07/22 10:33:36;;;;;;;18.23;3.25;;;40.40;24.70;;;;;;5038663;28;20025;-59
2022/07/22 10:36:03;;;;;;;;;;;40.30;24.50;;;;;;5044650;28;20108;-59
2022/07/22 10:38:31;;;;;;;13.60;4.13;;;40.60;24.70;;;;;;5057943;28;19909;-59
2022/07/22 10:41:00;;;;;;;11.00;3.47;;;40.80;24.60;;;;;;5035146;28;20101;-59
2022/07/22 10:43:28;;;;;;;7.95;3.00;;;40.70;24.30;;;;;;5043512;28;20025;-59
2022/07/22 10:45:55;;;;;;;7.03;3.47;;;40.10;23.70;;;;;;5044075;28;20128;-59
2022/07/22 10:48:25;;;;;;;14.63;4.28;;;40.30;24.00;;;;;;5047531;28;20099;-59
2022/07/22 10:51:17;;;;;;;14.48;4.03;;;39.70;24.60;;;;;;5042952;28;20021;-59
2022/07/22 10:53:48;;;;;;;9.52;3.42;;;40.40;24.10;;;;;;5044804;28;21266;-59
2022/07/22 10:56:29;;;;;;;17.13;4.75;;;40.80;25.50;;;;;;5041499;28;20041;-59
2022/07/22 10:59:12;;;;;;;10.32;4.32;;;41.20;24.50;;;;;;5050023;28;20509;-59
2022/07/22 11:01:49;;;;;;;9.68;3.20;;;40.10;24.30;;;;;;5047087;28;20186;-59
2022/07/22 11:04:19;;;;;;;10.00;4.00;;;40.50;24.50;;;;;;5026853;28;20486;-59
2022/07/22 11:06:47;;;;;;;10.10;4.20;;;40.80;24.30;;;;;;5050365;28;20028;-59
2022/07/22 11:09:13;;;;;;;9.50;3.13;;;40.90;24.20;;;;;;5044357;28;20036;-59
2022/07/22 11:11:42;;;;;;;6.63;3.47;;;41.20;24.70;;;;;;5035053;28;20084;-59
2022/07/22 11:14:30;;;;;;;10.77;3.60;;;41.20;25.20;;;;;;5044776;28;20017;-59
2022/07/22 11:17:05;;;;;;;8.68;3.78;;;40.90;23.50;;;;;;5047052;28;20032;-59
2022/07/22 11:19:32;;;;;;;11.23;3.95;;;40.60;24.20;;;;;;5049556;28;20030;-59
2022/07/22 11:22:04;;;;;;;26.67;6.57;;;40.60;24.20;;;;;;5042919;28;20024;-59
2022/07/22 11:24:31;;;;;;;4.78;3.13;;;40.30;24.90;;;;;;5040764;28;20471;-59
2022/07/22 11:27:04;;;;;;;20.20;4.80;;;40.20;25.50;;;;;;5041907;28;20048;-59
2022/07/22 11:29:37;;;;;;;10.18;3.00;;;40.30;24.20;;;;;;5047220;28;20108;-59
2022/07/22 11:32:06;;;;;;;21.23;6.53;;;40.90;25.40;;;;;;5046988;28;20329;-59
2022/07/22 11:34:33;;;;;;;8.32;3.08;;;40.80;24.80;;;;;;5044611;28;20029;-59
2022/07/22 11:36:59;;;;;;;15.40;3.60;;;40.80;24.70;;;;;;5054940;28;20029;-59
2022/07/22 11:39:27;;;;;;;16.98;4.88;;;40.80;24.40;;;;;;5054942;28;20025;-59
2022/07/22 11:41:57;;;;;;;10.77;3.95;;;40.40;24.40;;;;;;5054730;28;20078;-59
2022/07/22 11:44:26;;;;;;;14.13;4.88;;;40.00;25.30;;;;;;5054801;28;20033;-59
2022/07/22 11:46:52;;;;;;;12.43;3.47;;;39.30;24.90;;;;;;5054819;28;20033;-59
2022/07/22 11:49:21;;;;;;;19.73;5.50;;;39.00;25.40;;;;;;5040840;28;20033;-59
2022/07/22 11:51:47;;;;;;;14.43;4.00;;;39.40;25.10;;;;;;5043510;28;20033;-59
2022/07/22 11:54:14;;;;;;;11.70;3.40;;;39.70;24.70;;;;;;5039831;28;20031;-59
2022/07/22 11:56:40;;;;;;;8.25;3.28;;;39.70;24.70;;;;;;5041081;28;20025;-59
2022/07/22 11:59:08;;;;;;;13.32;3.70;;;40.50;24.20;;;;;;5047543;28;20037;-59
2022/07/22 12:01:37;;;;;;;6.80;3.40;;;40.20;24.40;;;;;;5040674;28;20037;-59
2022/07/22 12:04:05;;;;;;;13.27;4.53;;;40.60;24.90;;;;;;5047381;28;20390;-59
2022/07/22 12:06:36;;;;;;;8.82;3.80;;;39.90;23.80;;;;;;5052590;28;20120;-59
2022/07/22 12:09:09;;;;;;;9.18;3.90;;;39.70;25.00;;;;;;5048455;28;20115;-59
2022/07/22 12:11:39;;;;;;;14.20;4.47;;;40.80;24.60;;;;;;5036822;28;20482;-59
2022/07/22 12:14:15;;;;;;;12.73;3.88;;;41.30;24.10;;;;;;5037463;28;20059;-59
2022/07/22 12:16:44;;;;;;;19.10;6.05;;;40.50;23.30;;;;;;5054447;28;20040;-59
2022/07/22 12:19:11;;;;;;;8.63;3.38;;;40.70;23.10;;;;;;5052259;28;20032;-59
2022/07/22 12:21:51;;;;;;;8.75;3.28;;;39.90;24.40;;;;;;5052538;28;20029;-59
2022/07/22 12:24:34;;;;;;;13.77;5.18;;;40.70;23.70;;;;;;5049740;28;20076;-59
2022/07/22 12:27:07;;;;;;;7.05;3.45;;;41.40;23.90;;;;;;5044911;28;20055;-59
2022/07/22 12:29:36;;;;;;;8.70;4.28;;;40.80;22.70;;;;;;5053826;28;20032;-59
2022/07/22 12:32:06;;;;;;;8.98;4.30;;;39.90;23.80;;;;;;5053641;28;20295;-59
2022/07/22 12:34:35;;;;;;;18.15;3.95;;;39.60;24.60;;;;;;5053584;28;20044;-59
2022/07/22 12:37:14;;;;;;;15.43;4.30;;;39.00;24.70;;;;;;5051615;28;20042;-59
2022/07/22 12:39:51;;;;;;;14.75;3.90;;;40.00;24.50;;;;;;5054082;28;20029;-59
2022/07/22 12:42:17;;;;;;;9.48;3.47;;;40.00;23.70;;;;;;5049764;28;20194;-59
2022/07/22 12:45:14;;;;;;;12.75;3.85;;;40.60;23.50;;;;;;5043301;28;20021;-59
2022/07/22 12:47:53;;;;;;;11.77;3.67;;;40.80;23.90;;;;;;5053289;28;20467;-59
2022/07/22 12:50:37;;;;;;;19.45;4.28;;;40.70;24.10;;;;;;5048630;28;20033;-59
2022/07/22 12:53:14;;;;;;;28.55;6.38;;;41.00;23.40;;;;;;5046239;28;20485;-59
2022/07/22 12:55:44;;;;;;;5.85;3.47;;;40.40;23.60;;;;;;5046275;28;20502;-59